createdAt,value
2023-05-22T00:01:27.201Z,16.70
2023-05-22T00:03:58.791Z,16.70
2023-05-22T00:06:33.085Z,16.60
2023-05-22T00:09:01.470Z,16.50
2023-05-22T00:11:32.087Z,16.30
2023-05-22T00:14:04.215Z,16.20
2023-05-22T00:16:35.380Z,16.30
2023-05-22T00:19:19.431Z,16.20
2023-05-22T00:21:48.134Z,16.10
2023-05-22T00:24:19.897Z,16.10
2023-05-22T00:26:50.502Z,16.10
2023-05-22T00:29:23.255Z,16.10
2023-05-22T00:31:52.303Z,16.10
2023-05-22T00:34:24.439Z,16.10
2023-05-22T00:36:56.266Z,16.00
2023-05-22T00:39:24.419Z,16.00
2023-05-22T00:41:53.115Z,15.90
2023-05-22T00:44:24.384Z,15.90
2023-05-22T00:46:54.112Z,16.00
2023-05-22T00:49:27.307Z,15.90
2023-05-22T00:51:59.063Z,16.00
2023-05-22T00:54:36.971Z,15.90
2023-05-22T00:57:07.394Z,15.80
2023-05-22T00:59:37.193Z,15.70
2023-05-22T01:02:05.613Z,15.70
2023-05-22T01:04:41.772Z,15.60
2023-05-22T01:07:13.331Z,15.60
2023-05-22T01:09:48.555Z,15.50
2023-05-22T01:12:30.639Z,15.50
2023-05-22T01:15:11.902Z,15.40
2023-05-22T01:17:53.237Z,15.40
2023-05-22T01:20:37.377Z,15.40
2023-05-22T01:23:56.395Z,15.30
2023-05-22T01:26:43.678Z,15.30
2023-05-22T01:29:48.200Z,15.20
2023-05-22T01:32:21.915Z,15.20
2023-05-22T01:34:57.759Z,15.10
2023-05-22T01:37:27.109Z,15.00
2023-05-22T01:40:04.286Z,15.00
2023-05-22T01:42:34.069Z,14.80
2023-05-22T01:45:19.003Z,14.80
2023-05-22T01:48:00.196Z,14.90
2023-05-22T01:50:38.610Z,14.80
2023-05-22T01:53:17.226Z,14.70
2023-05-22T01:55:55.997Z,14.70
2023-05-22T01:58:36.504Z,14.60
2023-05-22T02:01:09.231Z,14.70
2023-05-22T02:03:40.791Z,14.60
2023-05-22T02:06:14.674Z,14.60
2023-05-22T02:09:00.199Z,14.50
2023-05-22T02:11:40.604Z,14.40
2023-05-22T02:14:13.344Z,14.40
2023-05-22T02:16:57.146Z,14.40
2023-05-22T02:19:31.450Z,14.40
2023-05-22T02:22:09.026Z,14.50
2023-05-22T02:24:44.169Z,14.40
2023-05-22T02:27:17.189Z,14.40
2023-05-22T02:29:48.177Z,14.40
2023-05-22T02:32:17.737Z,14.40
2023-05-22T02:34:52.297Z,14.50
2023-05-22T02:37:27.390Z,14.50
2023-05-22T02:40:01.611Z,14.40
2023-05-22T02:42:30.049Z,14.40
2023-05-22T02:45:12.940Z,14.40
2023-05-22T02:47:45.252Z,14.40
2023-05-22T02:50:19.748Z,14.40
2023-05-22T02:52:52.804Z,14.40
2023-05-22T02:55:24.374Z,14.30
2023-05-22T02:58:03.801Z,14.30
2023-05-22T03:00:32.527Z,14.20
2023-05-22T03:03:39.448Z,14.20
2023-05-22T03:06:21.658Z,14.20
2023-05-22T03:08:51.970Z,14.30
2023-05-22T03:11:21.550Z,14.20
2023-05-22T03:13:53.274Z,14.10
2023-05-22T03:16:23.903Z,14.10
2023-05-22T03:19:10.578Z,14.00
2023-05-22T03:21:40.654Z,13.90
2023-05-22T03:24:11.727Z,13.90
2023-05-22T03:26:42.155Z,13.80
2023-05-22T03:29:14.151Z,13.70
2023-05-22T03:31:44.100Z,13.80
2023-05-22T03:34:14.755Z,13.70
2023-05-22T03:36:47.581Z,13.80
2023-05-22T03:39:16.993Z,13.90
2023-05-22T03:41:53.711Z,13.90
2023-05-22T03:44:24.202Z,13.90
2023-05-22T03:46:53.944Z,13.90
2023-05-22T03:49:26.064Z,13.80
2023-05-22T03:51:57.203Z,13.70
2023-05-22T03:54:27.948Z,13.80
2023-05-22T03:56:57.599Z,13.90
2023-05-22T03:59:30.771Z,13.90
2023-05-22T04:02:03.154Z,13.90
2023-05-22T04:04:38.432Z,13.90
2023-05-22T04:07:15.764Z,13.90
2023-05-22T04:09:45.226Z,13.80
2023-05-22T04:12:14.825Z,13.90
2023-05-22T04:14:45.325Z,13.90
2023-05-22T04:17:16.989Z,14.00
2023-05-22T04:19:45.111Z,14.00
2023-05-22T04:22:15.532Z,14.10
2023-05-22T04:24:49.636Z,14.20
2023-05-22T04:27:22.870Z,14.30
2023-05-22T04:29:52.951Z,14.20
2023-05-22T04:32:25.254Z,14.30
2023-05-22T04:35:10.780Z,14.30
2023-05-22T04:37:46.599Z,14.40
2023-05-22T04:40:15.615Z,14.50
2023-05-22T04:42:48.208Z,14.50
2023-05-22T04:45:52.520Z,14.50
2023-05-22T04:48:24.615Z,14.50
2023-05-22T04:53:44.555Z,14.70
2023-05-22T04:56:31.748Z,14.70
2023-05-22T04:59:09.421Z,14.80
2023-05-22T05:01:41.315Z,14.90
2023-05-22T05:04:11.248Z,14.90
2023-05-22T05:06:46.296Z,15.00
2023-05-22T05:09:17.546Z,15.00
2023-05-22T05:11:49.100Z,15.00
2023-05-22T05:14:19.927Z,15.10
2023-05-22T05:17:05.041Z,15.00
2023-05-22T05:19:40.385Z,15.20
2023-05-22T05:22:35.127Z,15.40
2023-05-22T05:25:57.571Z,15.50
2023-05-22T05:34:56.800Z,15.70
2023-05-22T05:37:51.652Z,15.90
2023-05-22T05:40:21.374Z,16.10
2023-05-22T05:42:53.489Z,16.10
2023-05-22T05:45:23.120Z,16.40
2023-05-22T05:47:55.436Z,16.40
2023-05-22T05:50:23.898Z,16.50
2023-05-22T05:53:04.233Z,16.30
2023-05-22T05:55:51.011Z,16.70
2023-05-22T06:01:59.540Z,17.10
2023-05-22T06:04:29.207Z,17.20
2023-05-22T06:06:57.848Z,17.20
2023-05-22T06:10:01.470Z,17.20
2023-05-22T06:12:31.513Z,17.20
2023-05-22T06:15:05.542Z,17.30
2023-05-22T06:18:30.536Z,17.40
2023-05-22T06:21:26.257Z,17.50
2023-05-22T06:24:01.801Z,17.40
2023-05-22T06:26:47.698Z,17.60
2023-05-22T06:29:16.034Z,17.80
2023-05-22T06:31:49.967Z,18.20
2023-05-22T06:34:19.702Z,18.40
2023-05-22T06:36:58.428Z,18.60
2023-05-22T06:39:27.114Z,18.80
2023-05-22T06:41:56.703Z,18.80
2023-05-22T06:44:33.450Z,18.80
2023-05-22T06:47:18.462Z,18.90
2023-05-22T06:50:09.256Z,18.70
2023-05-22T06:52:44.912Z,19.20
2023-05-22T06:55:13.077Z,18.90
2023-05-22T06:57:42.149Z,19.00
2023-05-22T07:00:12.906Z,19.60
2023-05-22T07:05:28.768Z,19.80
2023-05-22T07:08:01.995Z,19.40
2023-05-22T07:10:30.670Z,19.40
2023-05-22T07:12:58.891Z,19.50
2023-05-22T07:15:46.706Z,19.60
2023-05-22T07:18:15.951Z,19.60
2023-05-22T07:20:45.631Z,19.60
2023-05-22T07:26:46.838Z,19.80
2023-05-22T07:29:15.093Z,19.90
2023-05-22T07:31:44.370Z,19.90
2023-05-22T07:34:16.434Z,20.20
2023-05-22T07:36:45.994Z,20.20
2023-05-22T07:39:15.594Z,20.30
2023-05-22T07:41:53.876Z,20.60
2023-05-22T07:44:24.569Z,20.50
2023-05-22T07:46:59.995Z,20.10
2023-05-22T07:50:06.478Z,20.10
2023-05-22T07:52:38.758Z,20.40
2023-05-22T07:55:55.330Z,21.30
2023-05-22T07:58:25.975Z,21.70
2023-05-22T08:00:56.102Z,21.70
2023-05-22T08:03:32.909Z,21.30
2023-05-22T08:06:25.859Z,21.10
2023-05-22T08:09:16.542Z,21.20
2023-05-22T08:11:49.973Z,21.00
2023-05-22T08:14:19.672Z,21.20
2023-05-22T08:16:47.817Z,20.90
2023-05-22T08:19:16.294Z,20.60
2023-05-22T08:21:45.459Z,21.00
2023-05-22T08:24:43.121Z,21.20
2023-05-22T08:27:12.753Z,21.20
2023-05-22T08:30:00.487Z,21.60
2023-05-22T08:32:31.396Z,21.50
2023-05-22T08:35:00.719Z,21.60
2023-05-22T08:37:28.854Z,21.40
2023-05-22T08:40:00.166Z,21.60
2023-05-22T08:42:31.186Z,21.80
2023-05-22T08:45:28.169Z,22.20
2023-05-22T08:48:30.409Z,22.40
2023-05-22T08:51:29.948Z,22.10
2023-05-22T08:54:13.102Z,22.40
2023-05-22T08:56:56.306Z,22.60
2023-05-22T09:02:48.898Z,22.80
2023-05-22T09:05:43.544Z,22.80
2023-05-22T09:08:20.929Z,23.00
2023-05-22T09:10:52.487Z,23.60
2023-05-22T09:13:32.295Z,24.10
2023-05-22T09:16:09.982Z,24.30
2023-05-22T09:19:07.502Z,25.10
2023-05-22T09:22:10.298Z,26.30
2023-05-22T09:24:40.415Z,24.60
2023-05-22T09:27:27.868Z,24.20
2023-05-22T09:29:58.559Z,25.60
2023-05-22T09:32:32.030Z,26.60
2023-05-22T09:35:39.337Z,25.80
2023-05-22T09:41:23.789Z,25.10
2023-05-22T09:47:12.607Z,24.70
2023-05-22T09:49:49.152Z,24.70
2023-05-22T09:52:23.678Z,24.60
2023-05-22T09:54:55.493Z,24.50
2023-05-22T09:57:31.078Z,24.50
2023-05-22T10:00:10.173Z,24.40
2023-05-22T10:02:49.575Z,24.90
2023-05-22T10:05:28.768Z,25.00
2023-05-22T10:08:17.448Z,25.00
2023-05-22T10:11:06.651Z,25.10
2023-05-22T10:13:40.310Z,24.50
2023-05-22T10:16:16.976Z,24.70
2023-05-22T10:18:51.425Z,24.50
2023-05-22T10:21:43.332Z,24.70
2023-05-22T10:24:29.947Z,25.10
2023-05-22T10:27:12.732Z,25.30
2023-05-22T10:30:13.174Z,25.00
2023-05-22T10:35:56.745Z,25.50
2023-05-22T10:38:48.158Z,25.30
2023-05-22T10:41:48.361Z,25.20
2023-05-22T10:44:23.679Z,25.40
2023-05-22T10:46:58.922Z,25.70
2023-05-22T10:49:28.617Z,25.70
2023-05-22T10:51:58.431Z,24.90
2023-05-22T10:55:12.784Z,25.50
2023-05-22T10:57:45.872Z,25.80
2023-05-22T11:04:24.171Z,26.20
2023-05-22T11:07:38.904Z,26.40
2023-05-22T11:13:32.078Z,26.10
2023-05-22T11:19:21.965Z,26.20
2023-05-22T11:22:01.625Z,26.40
2023-05-22T11:24:39.105Z,25.70
2023-05-22T11:27:16.707Z,25.40
2023-05-22T11:29:49.363Z,25.30
2023-05-22T11:32:25.543Z,25.30
2023-05-22T11:35:28.137Z,25.90
2023-05-22T11:47:58.528Z,26.40
2023-05-22T11:50:41.023Z,26.70
2023-05-22T11:53:16.508Z,26.50
2023-05-22T11:55:44.676Z,26.70
2023-05-22T11:58:27.332Z,26.20
2023-05-22T12:01:02.868Z,26.60
2023-05-22T12:07:43.240Z,26.80
2023-05-22T12:10:12.819Z,26.10
2023-05-22T12:12:55.823Z,26.00
2023-05-22T12:16:06.766Z,26.20
2023-05-22T12:19:00.392Z,26.50
2023-05-22T12:21:36.656Z,27.00
2023-05-22T12:24:56.976Z,26.70
2023-05-22T12:27:44.284Z,27.10
2023-05-22T12:30:15.499Z,26.70
2023-05-22T12:33:21.049Z,26.90
2023-05-22T12:36:32.673Z,27.00
2023-05-22T12:39:47.977Z,27.10
2023-05-22T12:42:54.336Z,26.70
2023-05-22T12:45:30.002Z,26.80
2023-05-22T12:48:01.991Z,26.20
2023-05-22T12:50:33.124Z,26.40
2023-05-22T12:53:02.318Z,26.70
2023-05-22T12:55:36.896Z,26.50
2023-05-22T12:58:06.774Z,26.20
2023-05-22T13:00:36.748Z,26.40
2023-05-22T13:03:07.423Z,26.30
2023-05-22T13:05:43.830Z,26.30
2023-05-22T13:08:18.880Z,26.20
2023-05-22T13:10:53.563Z,26.10
2023-05-22T13:13:24.736Z,25.70
2023-05-22T13:15:52.964Z,25.90
2023-05-22T13:18:21.101Z,26.00
2023-05-22T13:20:50.036Z,25.70
2023-05-22T13:23:19.418Z,25.60
2023-05-22T13:25:49.073Z,25.00
2023-05-22T13:28:17.204Z,24.00
2023-05-22T13:30:45.280Z,23.30
2023-05-22T13:33:16.450Z,22.60
2023-05-22T13:39:07.987Z,21.70
2023-05-22T13:41:37.690Z,21.80
2023-05-22T13:44:05.854Z,21.60
2023-05-22T13:46:34.792Z,21.10
2023-05-22T13:49:11.095Z,21.20
2023-05-22T13:51:45.021Z,19.80
2023-05-22T13:57:43.980Z,18.60
2023-05-22T14:00:16.635Z,17.90
2023-05-22T14:02:46.630Z,17.60
2023-05-22T14:05:14.998Z,18.30
2023-05-22T14:07:43.200Z,19.60
2023-05-22T14:10:13.842Z,20.30
2023-05-22T14:12:42.118Z,20.80
2023-05-22T14:16:13.022Z,21.10
2023-05-22T14:18:53.197Z,21.50
2023-05-22T14:21:24.492Z,21.30
2023-05-22T14:23:52.675Z,21.30
2023-05-22T14:26:26.000Z,21.20
2023-05-22T14:28:58.726Z,21.40
2023-05-22T14:31:32.093Z,21.90
2023-05-22T14:34:00.772Z,21.70
2023-05-22T14:36:29.066Z,21.90
2023-05-22T14:41:51.414Z,22.20
2023-05-22T14:44:27.917Z,22.10
2023-05-22T14:47:41.197Z,22.10
2023-05-22T14:50:19.683Z,22.40
2023-05-22T14:52:53.269Z,22.50
2023-05-22T14:55:43.601Z,22.50
2023-05-22T14:58:14.286Z,22.70
2023-05-22T15:04:34.900Z,22.60
2023-05-22T15:07:43.097Z,22.30
2023-05-22T15:10:18.267Z,21.90
2023-05-22T15:12:53.772Z,21.40
2023-05-22T15:15:34.622Z,21.10
2023-05-22T15:18:42.167Z,20.90
2023-05-22T15:21:21.288Z,21.20
2023-05-22T15:24:21.167Z,21.70
2023-05-22T15:26:55.595Z,22.60
2023-05-22T15:29:26.325Z,23.10
2023-05-22T15:31:54.600Z,23.50
2023-05-22T15:34:26.183Z,23.90
2023-05-22T15:36:57.181Z,24.30
2023-05-22T15:39:28.430Z,24.80
2023-05-22T15:42:05.863Z,25.00
2023-05-22T15:44:37.105Z,25.50
2023-05-22T15:47:05.519Z,25.60
2023-05-22T15:49:33.639Z,25.50
2023-05-22T15:52:04.062Z,25.70
2023-05-22T15:54:33.507Z,25.80
2023-05-22T15:57:01.690Z,25.70
2023-05-22T16:00:03.977Z,25.50
2023-05-22T16:02:42.730Z,25.30
2023-05-22T16:05:13.189Z,25.30
2023-05-22T16:10:50.862Z,25.10
2023-05-22T16:13:21.601Z,24.90
2023-05-22T16:15:50.006Z,24.30
2023-05-22T16:18:32.334Z,24.20
2023-05-22T16:21:03.522Z,24.00
2023-05-22T16:23:37.389Z,23.70
2023-05-22T16:26:09.622Z,23.20
2023-05-22T16:28:49.399Z,23.10
2023-05-22T16:31:25.819Z,23.00
2023-05-22T16:34:02.042Z,23.00
2023-05-22T16:36:31.971Z,22.70
2023-05-22T16:39:01.934Z,22.30
2023-05-22T16:41:38.268Z,22.10
2023-05-22T16:44:18.116Z,22.10
2023-05-22T16:46:58.121Z,22.10
2023-05-22T16:49:30.153Z,22.00
2023-05-22T16:52:09.875Z,21.90
2023-05-22T16:54:54.244Z,21.70
2023-05-22T16:57:24.086Z,21.60
2023-05-22T16:59:53.189Z,21.60
2023-05-22T17:02:33.417Z,21.50
2023-05-22T17:05:38.129Z,21.40
2023-05-22T17:08:44.774Z,21.30
2023-05-22T17:15:05.543Z,20.70
2023-05-22T17:17:42.910Z,20.40
2023-05-22T17:20:13.438Z,19.80
2023-05-22T17:22:49.267Z,19.20
2023-05-22T17:25:28.812Z,18.90
2023-05-22T17:28:01.503Z,18.60
2023-05-22T17:30:30.912Z,18.00
2023-05-22T17:33:27.412Z,17.40
2023-05-22T17:36:22.025Z,17.10
2023-05-22T17:38:56.995Z,17.20
2023-05-22T17:41:29.401Z,17.20
2023-05-22T17:44:04.096Z,17.10
2023-05-22T17:46:38.606Z,17.20
2023-05-22T17:49:13.702Z,17.20
2023-05-22T17:51:46.288Z,17.10
2023-05-22T17:54:32.008Z,17.10
2023-05-22T17:57:04.173Z,17.10
2023-05-22T17:59:39.790Z,17.10
2023-05-22T18:02:09.728Z,17.10
2023-05-22T18:04:42.084Z,17.10
2023-05-22T18:07:10.275Z,17.10
2023-05-22T18:09:39.458Z,17.10
2023-05-22T18:12:15.177Z,17.10
2023-05-22T18:15:39.391Z,17.20
2023-05-22T18:18:28.062Z,17.40
2023-05-22T18:21:04.220Z,17.50
2023-05-22T18:23:32.961Z,17.60
2023-05-22T18:26:02.178Z,17.70
2023-05-22T18:28:39.846Z,17.60
2023-05-22T18:31:09.311Z,17.60
2023-05-22T18:33:40.038Z,17.70
2023-05-22T18:36:10.896Z,17.70
2023-05-22T18:44:27.006Z,17.50
2023-05-22T18:46:56.491Z,17.50
2023-05-22T18:49:28.490Z,17.30
2023-05-22T18:51:59.267Z,17.50
2023-05-22T18:54:39.243Z,17.50
2023-05-22T18:57:11.249Z,17.40
2023-05-22T18:59:39.832Z,17.40
2023-05-22T19:02:38.499Z,17.30
2023-05-22T19:05:12.132Z,17.40
2023-05-22T19:07:41.573Z,17.40
2023-05-22T19:10:11.273Z,17.40
2023-05-22T19:12:41.057Z,17.30
2023-05-22T19:15:12.278Z,17.40
2023-05-22T19:17:51.133Z,17.20
2023-05-22T19:20:22.255Z,17.20
2023-05-22T19:22:54.060Z,17.20
2023-05-22T19:25:25.028Z,17.10
2023-05-22T19:27:54.173Z,17.10
2023-05-22T19:30:23.204Z,16.90
2023-05-22T19:32:55.889Z,17.00
2023-05-22T19:35:33.956Z,16.90
2023-05-22T19:38:02.694Z,16.80
2023-05-22T19:40:34.480Z,16.90
2023-05-22T19:43:13.438Z,16.90
2023-05-22T19:45:45.337Z,17.00
2023-05-22T19:48:23.046Z,16.90
2023-05-22T19:51:29.025Z,16.80
2023-05-22T19:54:05.016Z,16.70
2023-05-22T20:00:56.843Z,16.70
2023-05-22T20:03:26.540Z,16.70
2023-05-22T20:05:56.522Z,16.80
2023-05-22T20:08:26.211Z,16.80
2023-05-22T20:10:56.344Z,16.70
2023-05-22T20:13:24.763Z,16.90
2023-05-22T20:15:53.451Z,16.90
2023-05-22T20:18:23.202Z,16.80
2023-05-22T20:20:52.356Z,16.90
2023-05-22T20:23:22.819Z,16.90
2023-05-22T20:25:52.997Z,16.90
2023-05-22T20:28:23.643Z,16.90
2023-05-22T20:30:53.105Z,16.90
2023-05-22T20:33:26.378Z,16.90
2023-05-22T20:35:58.964Z,16.90
2023-05-22T20:38:29.418Z,17.00
2023-05-22T20:41:20.742Z,16.90
2023-05-22T20:43:54.820Z,16.90
2023-05-22T20:46:35.887Z,16.90
2023-05-22T20:49:06.226Z,16.90
2023-05-22T20:51:37.254Z,16.90
2023-05-22T20:54:19.484Z,16.80
2023-05-22T20:56:53.577Z,16.70
2023-05-22T20:59:22.073Z,16.80
2023-05-22T21:01:50.674Z,16.70
2023-05-22T21:08:13.916Z,16.80
2023-05-22T21:10:47.109Z,16.70
2023-05-22T21:13:17.467Z,16.60
2023-05-22T21:15:46.590Z,16.70
2023-05-22T21:18:19.318Z,16.70
2023-05-22T21:20:47.606Z,16.70
2023-05-22T21:23:18.093Z,16.80
2023-05-22T21:25:49.759Z,16.80
2023-05-22T21:28:17.933Z,16.70
2023-05-22T21:30:46.043Z,16.70
2023-05-22T21:33:17.177Z,16.70
2023-05-22T21:35:49.938Z,16.60
2023-05-22T21:41:40.342Z,16.50
2023-05-22T21:44:10.068Z,16.50
2023-05-22T21:46:41.192Z,16.40
2023-05-22T21:49:12.838Z,16.30
2023-05-22T21:51:43.220Z,16.30
2023-05-22T21:54:13.309Z,16.20
2023-05-22T21:56:43.010Z,16.10
2023-05-22T21:59:15.092Z,16.10
2023-05-22T22:01:44.014Z,16.10
2023-05-22T22:04:18.837Z,16.00
2023-05-22T22:06:52.130Z,15.90
2023-05-22T22:09:21.261Z,15.90
2023-05-22T22:11:52.254Z,15.90
2023-05-22T22:14:23.025Z,16.00
2023-05-22T22:16:54.419Z,16.00
2023-05-22T22:19:27.412Z,16.00
2023-05-22T22:21:56.666Z,16.00
2023-05-22T22:24:24.981Z,15.90
2023-05-22T22:26:57.591Z,15.90
2023-05-22T22:29:28.192Z,15.90
2023-05-22T22:31:58.896Z,15.80
2023-05-22T22:34:31.957Z,15.80
2023-05-22T22:37:02.851Z,15.80
2023-05-22T22:39:35.037Z,15.70
2023-05-22T22:42:33.376Z,15.70
2023-05-22T22:45:05.386Z,15.80
2023-05-22T22:47:36.792Z,15.80
2023-05-22T22:50:20.052Z,15.70
2023-05-22T22:52:49.715Z,15.70
2023-05-22T22:55:20.676Z,15.80
2023-05-22T22:58:06.936Z,15.70
2023-05-22T23:00:49.036Z,15.70
2023-05-22T23:03:20.608Z,15.70
2023-05-22T23:08:28.057Z,15.70
2023-05-22T23:10:56.144Z,15.70
2023-05-22T23:13:29.149Z,15.70
2023-05-22T23:15:59.803Z,15.70
2023-05-22T23:18:29.036Z,15.70
2023-05-22T23:20:58.486Z,15.60
2023-05-22T23:23:37.956Z,15.50
2023-05-22T23:26:20.818Z,15.60
2023-05-22T23:28:51.172Z,15.50
2023-05-22T23:31:27.018Z,15.40
2023-05-22T23:33:55.287Z,15.50
2023-05-22T23:36:24.840Z,15.50
2023-05-22T23:38:55.578Z,15.50
2023-05-22T23:41:26.099Z,15.60
2023-05-22T23:44:00.226Z,15.60
2023-05-22T23:46:32.821Z,15.60
2023-05-22T23:49:01.241Z,15.60
2023-05-22T23:51:31.683Z,15.60
2023-05-22T23:54:05.693Z,15.60
2023-05-22T23:56:36.199Z,15.60
2023-05-22T23:59:11.833Z,15.60
